sensor_id;sensor_type;location;lat;lon;timestamp;P1;durP1;ratioP1;P2;durP2;ratioP2
13941;SDS011;7043;51.630;7.254;2023-10-19T00:00:32;22.60;;;19.83;;
13941;SDS011;7043;51.630;7.254;2023-10-19T00:02:59;23.77;;;20.50;;
13941;SDS011;7043;51.630;7.254;2023-10-19T00:05:28;22.77;;;20.13;;
13941;SDS011;7043;51.630;7.254;2023-10-19T00:07:56;24.37;;;20.23;;
13941;SDS011;7043;51.630;7.254;2023-10-19T00:10:23;26.30;;;21.23;;
13941;SDS011;7043;51.630;7.254;2023-10-19T00:12:51;24.47;;;20.60;;
13941;SDS011;7043;51.630;7.254;2023-10-19T00:15:29;22.87;;;20.47;;
13941;SDS011;7043;51.630;7.254;2023-10-19T00:17:56;23.00;;;20.60;;
13941;SDS011;7043;51.630;7.254;2023-10-19T00:20:24;23.67;;;21.17;;
13941;SDS011;7043;51.630;7.254;2023-10-19T00:23:13;24.27;;;21.67;;
13941;SDS011;7043;51.630;7.254;2023-10-19T00:25:43;24.87;;;22.17;;
13941;SDS011;7043;51.630;7.254;2023-10-19T00:28:09;26.20;;;21.80;;
13941;SDS011;7043;51.630;7.254;2023-10-19T00:30:39;26.13;;;22.77;;
13941;SDS011;7043;51.630;7.254;2023-10-19T00:33:08;27.13;;;23.63;;
13941;SDS011;7043;51.630;7.254;2023-10-19T00:35:53;25.60;;;22.47;;
13941;SDS011;7043;51.630;7.254;2023-10-19T00:38:38;25.80;;;22.57;;
13941;SDS011;7043;51.630;7.254;2023-10-19T00:41:05;25.87;;;23.03;;
13941;SDS011;7043;51.630;7.254;2023-10-19T00:43:35;25.53;;;22.93;;
13941;SDS011;7043;51.630;7.254;2023-10-19T00:46:06;27.47;;;22.53;;
13941;SDS011;7043;51.630;7.254;2023-10-19T00:48:38;26.93;;;23.17;;
13941;SDS011;7043;51.630;7.254;2023-10-19T00:51:05;27.47;;;23.60;;
13941;SDS011;7043;51.630;7.254;2023-10-19T00:53:37;25.73;;;23.03;;
13941;SDS011;7043;51.630;7.254;2023-10-19T00:56:04;27.10;;;22.77;;
13941;SDS011;7043;51.630;7.254;2023-10-19T00:58:34;30.67;;;24.97;;
13941;SDS011;7043;51.630;7.254;2023-10-19T01:01:02;24.57;;;21.67;;
13941;SDS011;7043;51.630;7.254;2023-10-19T01:03:30;26.17;;;22.50;;
13941;SDS011;7043;51.630;7.254;2023-10-19T01:06:00;24.77;;;22.13;;
13941;SDS011;7043;51.630;7.254;2023-10-19T01:08:30;24.87;;;21.90;;
13941;SDS011;7043;51.630;7.254;2023-10-19T01:11:06;26.77;;;22.60;;
13941;SDS011;7043;51.630;7.254;2023-10-19T01:13:35;27.00;;;23.13;;
13941;SDS011;7043;51.630;7.254;2023-10-19T01:16:01;25.27;;;22.07;;
13941;SDS011;7043;51.630;7.254;2023-10-19T01:18:29;27.60;;;22.00;;
13941;SDS011;7043;51.630;7.254;2023-10-19T01:20:58;23.83;;;20.57;;
13941;SDS011;7043;51.630;7.254;2023-10-19T01:23:31;23.07;;;20.30;;
13941;SDS011;7043;51.630;7.254;2023-10-19T01:26:00;22.20;;;19.93;;
13941;SDS011;7043;51.630;7.254;2023-10-19T01:28:33;22.57;;;19.70;;
13941;SDS011;7043;51.630;7.254;2023-10-19T01:31:05;20.73;;;18.53;;
13941;SDS011;7043;51.630;7.254;2023-10-19T01:33:32;19.90;;;17.80;;
13941;SDS011;7043;51.630;7.254;2023-10-19T01:35:59;21.17;;;18.90;;
13941;SDS011;7043;51.630;7.254;2023-10-19T01:38:44;20.67;;;18.60;;
13941;SDS011;7043;51.630;7.254;2023-10-19T01:41:12;21.83;;;19.63;;
13941;SDS011;7043;51.630;7.254;2023-10-19T01:43:42;21.67;;;19.53;;
13941;SDS011;7043;51.630;7.254;2023-10-19T01:46:09;20.37;;;18.27;;
13941;SDS011;7043;51.630;7.254;2023-10-19T01:48:38;22.33;;;19.93;;
13941;SDS011;7043;51.630;7.254;2023-10-19T01:51:06;19.70;;;17.60;;
13941;SDS011;7043;51.630;7.254;2023-10-19T01:53:35;21.83;;;19.47;;
13941;SDS011;7043;51.630;7.254;2023-10-19T01:56:01;22.83;;;19.83;;
13941;SDS011;7043;51.630;7.254;2023-10-19T01:58:31;22.00;;;19.70;;
13941;SDS011;7043;51.630;7.254;2023-10-19T02:01:01;21.67;;;19.47;;
13941;SDS011;7043;51.630;7.254;2023-10-19T02:03:33;22.27;;;19.97;;
13941;SDS011;7043;51.630;7.254;2023-10-19T02:06:00;22.13;;;19.73;;
13941;SDS011;7043;51.630;7.254;2023-10-19T02:08:35;22.60;;;19.83;;
13941;SDS011;7043;51.630;7.254;2023-10-19T02:11:03;22.33;;;19.73;;
13941;SDS011;7043;51.630;7.254;2023-10-19T02:13:34;21.50;;;19.20;;
13941;SDS011;7043;51.630;7.254;2023-10-19T02:16:01;20.40;;;18.20;;
13941;SDS011;7043;51.630;7.254;2023-10-19T02:18:27;20.63;;;18.43;;
13941;SDS011;7043;51.630;7.254;2023-10-19T02:20:53;19.30;;;17.30;;
13941;SDS011;7043;51.630;7.254;2023-10-19T02:23:21;18.00;;;16.10;;
13941;SDS011;7043;51.630;7.254;2023-10-19T02:25:47;19.17;;;17.17;;
13941;SDS011;7043;51.630;7.254;2023-10-19T02:28:14;19.03;;;17.23;;
13941;SDS011;7043;51.630;7.254;2023-10-19T02:30:40;19.43;;;17.40;;
13941;SDS011;7043;51.630;7.254;2023-10-19T02:33:07;18.47;;;16.67;;
13941;SDS011;7043;51.630;7.254;2023-10-19T02:35:33;18.00;;;16.30;;
13941;SDS011;7043;51.630;7.254;2023-10-19T02:38:00;16.57;;;14.97;;
13941;SDS011;7043;51.630;7.254;2023-10-19T02:40:29;17.80;;;16.00;;
13941;SDS011;7043;51.630;7.254;2023-10-19T02:42:56;18.43;;;16.63;;
13941;SDS011;7043;51.630;7.254;2023-10-19T02:45:27;16.00;;;14.50;;
13941;SDS011;7043;51.630;7.254;2023-10-19T02:47:56;17.00;;;15.47;;
13941;SDS011;7043;51.630;7.254;2023-10-19T02:50:23;16.80;;;15.20;;
13941;SDS011;7043;51.630;7.254;2023-10-19T02:52:51;16.87;;;15.27;;
13941;SDS011;7043;51.630;7.254;2023-10-19T02:55:18;16.30;;;14.80;;
13941;SDS011;7043;51.630;7.254;2023-10-19T02:57:49;17.17;;;15.57;;
13941;SDS011;7043;51.630;7.254;2023-10-19T03:00:15;15.83;;;14.23;;
13941;SDS011;7043;51.630;7.254;2023-10-19T03:02:45;15.30;;;13.83;;
13941;SDS011;7043;51.630;7.254;2023-10-19T03:05:11;15.23;;;13.83;;
13941;SDS011;7043;51.630;7.254;2023-10-19T03:07:42;16.97;;;15.27;;
13941;SDS011;7043;51.630;7.254;2023-10-19T03:10:11;15.20;;;13.77;;
13941;SDS011;7043;51.630;7.254;2023-10-19T03:12:49;15.47;;;13.70;;
13941;SDS011;7043;51.630;7.254;2023-10-19T03:15:15;12.53;;;11.43;;
13941;SDS011;7043;51.630;7.254;2023-10-19T03:17:42;13.23;;;12.03;;
13941;SDS011;7043;51.630;7.254;2023-10-19T03:20:08;12.23;;;11.07;;
13941;SDS011;7043;51.630;7.254;2023-10-19T03:22:36;11.13;;;10.00;;
13941;SDS011;7043;51.630;7.254;2023-10-19T03:25:04;11.10;;;10.00;;
13941;SDS011;7043;51.630;7.254;2023-10-19T03:27:49;11.73;;;10.33;;
13941;SDS011;7043;51.630;7.254;2023-10-19T03:30:14;10.10;;;8.90;;
13941;SDS011;7043;51.630;7.254;2023-10-19T03:32:43;8.70;;;8.00;;
13941;SDS011;7043;51.630;7.254;2023-10-19T03:35:09;9.93;;;7.77;;
13941;SDS011;7043;51.630;7.254;2023-10-19T03:37:40;8.70;;;7.80;;
13941;SDS011;7043;51.630;7.254;2023-10-19T03:40:07;8.50;;;6.73;;
13941;SDS011;7043;51.630;7.254;2023-10-19T03:42:40;8.23;;;7.20;;
13941;SDS011;7043;51.630;7.254;2023-10-19T03:45:07;7.73;;;6.30;;
13941;SDS011;7043;51.630;7.254;2023-10-19T03:47:38;7.53;;;6.83;;
13941;SDS011;7043;51.630;7.254;2023-10-19T03:50:04;7.97;;;6.20;;
13941;SDS011;7043;51.630;7.254;2023-10-19T03:52:32;7.80;;;6.03;;
13941;SDS011;7043;51.630;7.254;2023-10-19T03:54:58;6.93;;;5.27;;
13941;SDS011;7043;51.630;7.254;2023-10-19T03:57:24;5.63;;;5.03;;
13941;SDS011;7043;51.630;7.254;2023-10-19T03:59:54;6.07;;;5.50;;
13941;SDS011;7043;51.630;7.254;2023-10-19T04:02:26;6.27;;;5.33;;
13941;SDS011;7043;51.630;7.254;2023-10-19T04:04:54;7.33;;;5.77;;
13941;SDS011;7043;51.630;7.254;2023-10-19T04:07:22;5.77;;;5.20;;
13941;SDS011;7043;51.630;7.254;2023-10-19T04:09:51;6.43;;;4.80;;
13941;SDS011;7043;51.630;7.254;2023-10-19T04:12:29;6.07;;;5.03;;
13941;SDS011;7043;51.630;7.254;2023-10-19T04:15:00;5.63;;;4.73;;
13941;SDS011;7043;51.630;7.254;2023-10-19T04:17:47;5.87;;;5.13;;
13941;SDS011;7043;51.630;7.254;2023-10-19T04:20:18;5.33;;;4.83;;
13941;SDS011;7043;51.630;7.254;2023-10-19T04:22:44;6.40;;;5.27;;
13941;SDS011;7043;51.630;7.254;2023-10-19T04:25:11;5.47;;;4.97;;
13941;SDS011;7043;51.630;7.254;2023-10-19T04:27:38;7.90;;;5.50;;
13941;SDS011;7043;51.630;7.254;2023-10-19T04:30:06;5.70;;;5.20;;
13941;SDS011;7043;51.630;7.254;2023-10-19T04:32:42;5.40;;;4.90;;
13941;SDS011;7043;51.630;7.254;2023-10-19T04:35:08;8.07;;;5.50;;
13941;SDS011;7043;51.630;7.254;2023-10-19T04:37:35;7.53;;;5.03;;
13941;SDS011;7043;51.630;7.254;2023-10-19T04:40:01;5.87;;;5.23;;
13941;SDS011;7043;51.630;7.254;2023-10-19T04:42:27;5.37;;;4.53;;
13941;SDS011;7043;51.630;7.254;2023-10-19T04:44:54;5.67;;;5.07;;
13941;SDS011;7043;51.630;7.254;2023-10-19T04:47:20;6.03;;;4.80;;
13941;SDS011;7043;51.630;7.254;2023-10-19T04:49:47;5.67;;;4.50;;
13941;SDS011;7043;51.630;7.254;2023-10-19T04:52:13;6.30;;;4.43;;
13941;SDS011;7043;51.630;7.254;2023-10-19T04:54:39;6.93;;;5.20;;
13941;SDS011;7043;51.630;7.254;2023-10-19T04:57:05;5.03;;;4.40;;
13941;SDS011;7043;51.630;7.254;2023-10-19T04:59:31;5.60;;;4.43;;
13941;SDS011;7043;51.630;7.254;2023-10-19T05:01:58;4.57;;;4.17;;
13941;SDS011;7043;51.630;7.254;2023-10-19T05:04:26;5.90;;;4.17;;
13941;SDS011;7043;51.630;7.254;2023-10-19T05:06:52;5.80;;;4.10;;
13941;SDS011;7043;51.630;7.254;2023-10-19T05:09:18;6.57;;;5.13;;
13941;SDS011;7043;51.630;7.254;2023-10-19T05:11:44;4.93;;;4.43;;
13941;SDS011;7043;51.630;7.254;2023-10-19T05:14:11;5.00;;;4.17;;
13941;SDS011;7043;51.630;7.254;2023-10-19T05:16:38;5.83;;;4.60;;
13941;SDS011;7043;51.630;7.254;2023-10-19T05:19:04;5.63;;;4.13;;
13941;SDS011;7043;51.630;7.254;2023-10-19T05:21:30;6.30;;;4.33;;
13941;SDS011;7043;51.630;7.254;2023-10-19T05:23:56;6.87;;;4.30;;
13941;SDS011;7043;51.630;7.254;2023-10-19T05:26:25;4.43;;;3.70;;
13941;SDS011;7043;51.630;7.254;2023-10-19T05:28:51;6.10;;;4.80;;
13941;SDS011;7043;51.630;7.254;2023-10-19T05:31:17;5.17;;;4.67;;
13941;SDS011;7043;51.630;7.254;2023-10-19T05:33:43;6.17;;;4.87;;
13941;SDS011;7043;51.630;7.254;2023-10-19T05:36:09;5.50;;;5.00;;
13941;SDS011;7043;51.630;7.254;2023-10-19T05:38:35;6.43;;;4.90;;
13941;SDS011;7043;51.630;7.254;2023-10-19T05:41:01;6.47;;;4.83;;
13941;SDS011;7043;51.630;7.254;2023-10-19T05:43:28;7.07;;;5.07;;
13941;SDS011;7043;51.630;7.254;2023-10-19T05:45:55;5.70;;;5.10;;
13941;SDS011;7043;51.630;7.254;2023-10-19T05:48:22;8.33;;;5.57;;
13941;SDS011;7043;51.630;7.254;2023-10-19T05:50:51;6.37;;;5.37;;
13941;SDS011;7043;51.630;7.254;2023-10-19T05:53:17;6.40;;;5.80;;
13941;SDS011;7043;51.630;7.254;2023-10-19T05:55:47;7.00;;;6.33;;
13941;SDS011;7043;51.630;7.254;2023-10-19T05:58:14;7.70;;;6.17;;
13941;SDS011;7043;51.630;7.254;2023-10-19T06:00:41;8.00;;;5.90;;
13941;SDS011;7043;51.630;7.254;2023-10-19T06:03:07;6.77;;;5.27;;
13941;SDS011;7043;51.630;7.254;2023-10-19T06:05:33;6.07;;;4.90;;
13941;SDS011;7043;51.630;7.254;2023-10-19T06:07:59;6.13;;;5.10;;
13941;SDS011;7043;51.630;7.254;2023-10-19T06:10:25;7.30;;;5.80;;
13941;SDS011;7043;51.630;7.254;2023-10-19T06:12:51;8.10;;;5.43;;
13941;SDS011;7043;51.630;7.254;2023-10-19T06:15:18;8.93;;;5.67;;
13941;SDS011;7043;51.630;7.254;2023-10-19T06:17:46;6.03;;;5.43;;
13941;SDS011;7043;51.630;7.254;2023-10-19T06:20:13;6.80;;;5.97;;
13941;SDS011;7043;51.630;7.254;2023-10-19T06:22:57;6.67;;;5.37;;
13941;SDS011;7043;51.630;7.254;2023-10-19T06:25:30;11.13;;;5.77;;
13941;SDS011;7043;51.630;7.254;2023-10-19T06:27:56;8.23;;;5.40;;
13941;SDS011;7043;51.630;7.254;2023-10-19T06:30:22;6.63;;;5.10;;
13941;SDS011;7043;51.630;7.254;2023-10-19T06:32:52;7.50;;;5.37;;
13941;SDS011;7043;51.630;7.254;2023-10-19T06:35:19;7.27;;;5.50;;
13941;SDS011;7043;51.630;7.254;2023-10-19T06:37:45;6.50;;;5.53;;
13941;SDS011;7043;51.630;7.254;2023-10-19T06:40:12;7.80;;;5.60;;
13941;SDS011;7043;51.630;7.254;2023-10-19T06:42:40;6.77;;;4.87;;
13941;SDS011;7043;51.630;7.254;2023-10-19T06:45:06;5.47;;;4.33;;
13941;SDS011;7043;51.630;7.254;2023-10-19T06:47:32;6.87;;;5.00;;
13941;SDS011;7043;51.630;7.254;2023-10-19T06:50:03;7.03;;;4.63;;
13941;SDS011;7043;51.630;7.254;2023-10-19T06:52:30;7.23;;;4.60;;
13941;SDS011;7043;51.630;7.254;2023-10-19T06:54:57;5.77;;;3.77;;
13941;SDS011;7043;51.630;7.254;2023-10-19T06:57:23;4.97;;;3.40;;
13941;SDS011;7043;51.630;7.254;2023-10-19T06:59:49;4.43;;;3.40;;
13941;SDS011;7043;51.630;7.254;2023-10-19T07:02:17;6.97;;;3.80;;
13941;SDS011;7043;51.630;7.254;2023-10-19T07:04:45;6.40;;;3.40;;
13941;SDS011;7043;51.630;7.254;2023-10-19T07:07:12;6.30;;;4.53;;
13941;SDS011;7043;51.630;7.254;2023-10-19T07:09:39;6.50;;;4.20;;
13941;SDS011;7043;51.630;7.254;2023-10-19T07:12:06;8.13;;;3.63;;
13941;SDS011;7043;51.630;7.254;2023-10-19T07:14:33;4.53;;;3.83;;
13941;SDS011;7043;51.630;7.254;2023-10-19T07:16:59;5.37;;;3.60;;
13941;SDS011;7043;51.630;7.254;2023-10-19T07:19:25;6.77;;;3.67;;
13941;SDS011;7043;51.630;7.254;2023-10-19T07:21:51;4.80;;;3.83;;
13941;SDS011;7043;51.630;7.254;2023-10-19T07:24:25;4.57;;;3.63;;
13941;SDS011;7043;51.630;7.254;2023-10-19T07:26:51;6.50;;;3.97;;
13941;SDS011;7043;51.630;7.254;2023-10-19T07:29:29;6.00;;;4.20;;
13941;SDS011;7043;51.630;7.254;2023-10-19T07:31:55;5.53;;;3.80;;
13941;SDS011;7043;51.630;7.254;2023-10-19T07:34:23;5.63;;;3.90;;
13941;SDS011;7043;51.630;7.254;2023-10-19T07:36:52;7.37;;;4.30;;
13941;SDS011;7043;51.630;7.254;2023-10-19T07:39:19;6.00;;;3.83;;
13941;SDS011;7043;51.630;7.254;2023-10-19T07:41:47;4.93;;;3.97;;
13941;SDS011;7043;51.630;7.254;2023-10-19T07:44:13;6.53;;;3.70;;
13941;SDS011;7043;51.630;7.254;2023-10-19T07:46:40;5.00;;;3.77;;
13941;SDS011;7043;51.630;7.254;2023-10-19T07:49:06;4.47;;;3.70;;
13941;SDS011;7043;51.630;7.254;2023-10-19T07:51:33;5.83;;;4.23;;
13941;SDS011;7043;51.630;7.254;2023-10-19T07:53:59;5.30;;;3.70;;
13941;SDS011;7043;51.630;7.254;2023-10-19T07:56:25;6.55;;;3.85;;
13941;SDS011;7043;51.630;7.254;2023-10-19T07:58:51;5.83;;;4.30;;
13941;SDS011;7043;51.630;7.254;2023-10-19T08:01:17;5.37;;;4.20;;
13941;SDS011;7043;51.630;7.254;2023-10-19T08:03:43;7.10;;;4.37;;
13941;SDS011;7043;51.630;7.254;2023-10-19T08:06:09;6.27;;;3.93;;
13941;SDS011;7043;51.630;7.254;2023-10-19T08:08:35;7.27;;;4.90;;
13941;SDS011;7043;51.630;7.254;2023-10-19T08:11:01;7.70;;;4.50;;
13941;SDS011;7043;51.630;7.254;2023-10-19T08:13:27;5.53;;;4.37;;
13941;SDS011;7043;51.630;7.254;2023-10-19T08:15:53;6.10;;;4.73;;
13941;SDS011;7043;51.630;7.254;2023-10-19T08:18:20;7.20;;;5.07;;
13941;SDS011;7043;51.630;7.254;2023-10-19T08:20:46;4.97;;;4.50;;
13941;SDS011;7043;51.630;7.254;2023-10-19T08:23:14;8.70;;;5.10;;
13941;SDS011;7043;51.630;7.254;2023-10-19T08:25:41;5.83;;;5.20;;
13941;SDS011;7043;51.630;7.254;2023-10-19T08:28:09;10.03;;;5.30;;
13941;SDS011;7043;51.630;7.254;2023-10-19T08:30:36;7.20;;;5.63;;
13941;SDS011;7043;51.630;7.254;2023-10-19T08:33:02;6.27;;;5.67;;
13941;SDS011;7043;51.630;7.254;2023-10-19T08:35:29;11.60;;;6.43;;
13941;SDS011;7043;51.630;7.254;2023-10-19T08:37:56;7.17;;;5.27;;
13941;SDS011;7043;51.630;7.254;2023-10-19T08:40:22;7.60;;;5.50;;
13941;SDS011;7043;51.630;7.254;2023-10-19T08:42:51;7.07;;;5.10;;
13941;SDS011;7043;51.630;7.254;2023-10-19T08:45:18;5.60;;;5.00;;
13941;SDS011;7043;51.630;7.254;2023-10-19T08:47:53;8.05;;;5.03;;
13941;SDS011;7043;51.630;7.254;2023-10-19T08:50:26;6.97;;;5.30;;
13941;SDS011;7043;51.630;7.254;2023-10-19T08:52:53;6.37;;;5.00;;
13941;SDS011;7043;51.630;7.254;2023-10-19T08:55:20;5.70;;;5.20;;
13941;SDS011;7043;51.630;7.254;2023-10-19T08:57:46;7.60;;;4.90;;
13941;SDS011;7043;51.630;7.254;2023-10-19T09:00:14;6.90;;;5.37;;
13941;SDS011;7043;51.630;7.254;2023-10-19T09:02:44;9.50;;;5.50;;
13941;SDS011;7043;51.630;7.254;2023-10-19T09:05:10;6.83;;;5.30;;
13941;SDS011;7043;51.630;7.254;2023-10-19T09:07:45;9.95;;;5.85;;
13941;SDS011;7043;51.630;7.254;2023-10-19T09:10:15;8.20;;;5.90;;
13941;SDS011;7043;51.630;7.254;2023-10-19T09:12:41;5.87;;;5.07;;
13941;SDS011;7043;51.630;7.254;2023-10-19T09:15:41;7.90;;;5.27;;
13941;SDS011;7043;51.630;7.254;2023-10-19T09:18:16;7.50;;;5.47;;
13941;SDS011;7043;51.630;7.254;2023-10-19T09:20:43;6.18;;;4.90;;
13941;SDS011;7043;51.630;7.254;2023-10-19T09:23:22;7.32;;;5.20;;
13941;SDS011;7043;51.630;7.254;2023-10-19T09:25:49;5.97;;;4.97;;
13941;SDS011;7043;51.630;7.254;2023-10-19T09:28:15;5.90;;;4.80;;
13941;SDS011;7043;51.630;7.254;2023-10-19T09:30:42;6.90;;;5.17;;
13941;SDS011;7043;51.630;7.254;2023-10-19T09:33:09;5.30;;;4.13;;
13941;SDS011;7043;51.630;7.254;2023-10-19T09:35:35;7.18;;;4.30;;
13941;SDS011;7043;51.630;7.254;2023-10-19T09:38:03;9.90;;;4.30;;
13941;SDS011;7043;51.630;7.254;2023-10-19T09:40:31;6.88;;;4.25;;
13941;SDS011;7043;51.630;7.254;2023-10-19T09:42:58;5.80;;;3.97;;
13941;SDS011;7043;51.630;7.254;2023-10-19T09:45:24;5.65;;;4.28;;
13941;SDS011;7043;51.630;7.254;2023-10-19T09:47:53;6.35;;;4.10;;
13941;SDS011;7043;51.630;7.254;2023-10-19T09:50:20;6.68;;;4.45;;
13941;SDS011;7043;51.630;7.254;2023-10-19T09:52:46;7.05;;;4.40;;
13941;SDS011;7043;51.630;7.254;2023-10-19T09:55:22;5.97;;;4.13;;
13941;SDS011;7043;51.630;7.254;2023-10-19T10:00:17;6.78;;;4.30;;
13941;SDS011;7043;51.630;7.254;2023-10-19T10:02:49;6.28;;;4.00;;
13941;SDS011;7043;51.630;7.254;2023-10-19T10:10:44;6.70;;;3.70;;
13941;SDS011;7043;51.630;7.254;2023-10-19T10:15:54;4.25;;;3.63;;
13941;SDS011;7043;51.630;7.254;2023-10-19T10:18:21;4.97;;;3.67;;
13941;SDS011;7043;51.630;7.254;2023-10-19T10:21:04;5.72;;;3.88;;
13941;SDS011;7043;51.630;7.254;2023-10-19T10:23:31;6.65;;;3.60;;
13941;SDS011;7043;51.630;7.254;2023-10-19T10:25:59;4.63;;;3.47;;
13941;SDS011;7043;51.630;7.254;2023-10-19T10:28:25;4.78;;;3.50;;
13941;SDS011;7043;51.630;7.254;2023-10-19T10:33:42;5.13;;;3.20;;
13941;SDS011;7043;51.630;7.254;2023-10-19T10:36:10;5.18;;;3.33;;
13941;SDS011;7043;51.630;7.254;2023-10-19T10:38:36;5.82;;;3.10;;
13941;SDS011;7043;51.630;7.254;2023-10-19T10:41:03;4.93;;;3.17;;
13941;SDS011;7043;51.630;7.254;2023-10-19T10:43:29;4.82;;;3.13;;
13941;SDS011;7043;51.630;7.254;2023-10-19T10:46:05;4.97;;;3.22;;
13941;SDS011;7043;51.630;7.254;2023-10-19T10:48:32;6.70;;;3.30;;
13941;SDS011;7043;51.630;7.254;2023-10-19T10:50:58;4.65;;;3.20;;
13941;SDS011;7043;51.630;7.254;2023-10-19T10:53:25;6.32;;;3.05;;
13941;SDS011;7043;51.630;7.254;2023-10-19T10:55:51;4.88;;;2.88;;
13941;SDS011;7043;51.630;7.254;2023-10-19T10:58:18;8.20;;;3.80;;
13941;SDS011;7043;51.630;7.254;2023-10-19T11:00:44;4.05;;;2.75;;
13941;SDS011;7043;51.630;7.254;2023-10-19T11:03:16;5.38;;;2.55;;
13941;SDS011;7043;51.630;7.254;2023-10-19T11:05:42;6.57;;;2.50;;
13941;SDS011;7043;51.630;7.254;2023-10-19T11:08:16;6.88;;;2.72;;
13941;SDS011;7043;51.630;7.254;2023-10-19T11:10:46;6.65;;;2.90;;
13941;SDS011;7043;51.630;7.254;2023-10-19T11:13:16;5.75;;;2.97;;
13941;SDS011;7043;51.630;7.254;2023-10-19T11:15:49;4.97;;;2.70;;
13941;SDS011;7043;51.630;7.254;2023-10-19T11:20:54;5.10;;;2.80;;
13941;SDS011;7043;51.630;7.254;2023-10-19T11:23:33;4.03;;;2.38;;
13941;SDS011;7043;51.630;7.254;2023-10-19T11:26:00;5.28;;;2.80;;
13941;SDS011;7043;51.630;7.254;2023-10-19T11:28:27;4.90;;;2.60;;
13941;SDS011;7043;51.630;7.254;2023-10-19T11:30:55;6.93;;;2.40;;
13941;SDS011;7043;51.630;7.254;2023-10-19T11:33:20;5.82;;;2.08;;
13941;SDS011;7043;51.630;7.254;2023-10-19T11:35:49;6.10;;;2.05;;
13941;SDS011;7043;51.630;7.254;2023-10-19T11:38:15;7.43;;;2.35;;
13941;SDS011;7043;51.630;7.254;2023-10-19T11:40:43;5.82;;;2.20;;
13941;SDS011;7043;51.630;7.254;2023-10-19T11:43:08;6.07;;;1.95;;
13941;SDS011;7043;51.630;7.254;2023-10-19T11:45:35;5.10;;;2.20;;
13941;SDS011;7043;51.630;7.254;2023-10-19T11:48:01;6.97;;;2.05;;
13941;SDS011;7043;51.630;7.254;2023-10-19T11:50:27;6.90;;;2.40;;
13941;SDS011;7043;51.630;7.254;2023-10-19T11:52:53;5.53;;;2.17;;
13941;SDS011;7043;51.630;7.254;2023-10-19T11:55:21;5.78;;;2.10;;
13941;SDS011;7043;51.630;7.254;2023-10-19T11:57:47;4.28;;;2.25;;
13941;SDS011;7043;51.630;7.254;2023-10-19T12:00:13;7.10;;;2.13;;
13941;SDS011;7043;51.630;7.254;2023-10-19T12:02:44;4.70;;;1.92;;
13941;SDS011;7043;51.630;7.254;2023-10-19T12:05:10;6.10;;;2.08;;
13941;SDS011;7043;51.630;7.254;2023-10-19T12:07:37;5.90;;;2.03;;
13941;SDS011;7043;51.630;7.254;2023-10-19T12:10:04;6.72;;;1.80;;
13941;SDS011;7043;51.630;7.254;2023-10-19T12:12:30;5.30;;;2.20;;
13941;SDS011;7043;51.630;7.254;2023-10-19T12:14:56;7.28;;;2.05;;
13941;SDS011;7043;51.630;7.254;2023-10-19T12:17:23;4.90;;;1.90;;
13941;SDS011;7043;51.630;7.254;2023-10-19T12:19:51;7.15;;;2.03;;
13941;SDS011;7043;51.630;7.254;2023-10-19T12:22:17;4.85;;;1.77;;
13941;SDS011;7043;51.630;7.254;2023-10-19T12:24:43;3.85;;;1.77;;
13941;SDS011;7043;51.630;7.254;2023-10-19T12:27:09;7.85;;;2.28;;
13941;SDS011;7043;51.630;7.254;2023-10-19T12:29:35;6.10;;;1.83;;
13941;SDS011;7043;51.630;7.254;2023-10-19T12:32:01;7.90;;;2.20;;
13941;SDS011;7043;51.630;7.254;2023-10-19T12:34:27;6.63;;;2.40;;
13941;SDS011;7043;51.630;7.254;2023-10-19T12:36:55;4.35;;;1.77;;
13941;SDS011;7043;51.630;7.254;2023-10-19T12:39:23;7.45;;;2.60;;
13941;SDS011;7043;51.630;7.254;2023-10-19T12:42:08;3.97;;;1.88;;
13941;SDS011;7043;51.630;7.254;2023-10-19T12:44:34;5.10;;;2.22;;
13941;SDS011;7043;51.630;7.254;2023-10-19T12:47:04;5.05;;;2.05;;
13941;SDS011;7043;51.630;7.254;2023-10-19T12:49:34;4.93;;;1.80;;
13941;SDS011;7043;51.630;7.254;2023-10-19T12:52:00;5.15;;;1.98;;
13941;SDS011;7043;51.630;7.254;2023-10-19T12:54:32;6.03;;;1.80;;
13941;SDS011;7043;51.630;7.254;2023-10-19T12:56:57;4.28;;;1.67;;
13941;SDS011;7043;51.630;7.254;2023-10-19T12:59:23;5.50;;;2.15;;
13941;SDS011;7043;51.630;7.254;2023-10-19T13:01:50;6.35;;;2.22;;
13941;SDS011;7043;51.630;7.254;2023-10-19T13:04:20;5.72;;;2.10;;
13941;SDS011;7043;51.630;7.254;2023-10-19T13:06:49;6.47;;;2.40;;
13941;SDS011;7043;51.630;7.254;2023-10-19T13:09:15;6.78;;;3.50;;
13941;SDS011;7043;51.630;7.254;2023-10-19T13:11:46;5.95;;;2.25;;
13941;SDS011;7043;51.630;7.254;2023-10-19T13:14:15;9.52;;;2.58;;
13941;SDS011;7043;51.630;7.254;2023-10-19T13:16:42;5.80;;;2.03;;
13941;SDS011;7043;51.630;7.254;2023-10-19T13:19:08;6.45;;;2.33;;
13941;SDS011;7043;51.630;7.254;2023-10-19T13:21:38;7.72;;;2.20;;
13941;SDS011;7043;51.630;7.254;2023-10-19T13:24:07;7.50;;;1.88;;
13941;SDS011;7043;51.630;7.254;2023-10-19T13:26:33;4.32;;;2.00;;
13941;SDS011;7043;51.630;7.254;2023-10-19T13:28:59;8.13;;;2.53;;
13941;SDS011;7043;51.630;7.254;2023-10-19T13:31:26;6.70;;;2.78;;
13941;SDS011;7043;51.630;7.254;2023-10-19T13:33:52;9.30;;;2.95;;
13941;SDS011;7043;51.630;7.254;2023-10-19T13:36:19;7.35;;;2.33;;
13941;SDS011;7043;51.630;7.254;2023-10-19T13:38:45;5.50;;;2.00;;
13941;SDS011;7043;51.630;7.254;2023-10-19T13:41:11;5.30;;;2.40;;
13941;SDS011;7043;51.630;7.254;2023-10-19T13:43:39;7.78;;;2.63;;
13941;SDS011;7043;51.630;7.254;2023-10-19T13:46:07;8.20;;;2.45;;
13941;SDS011;7043;51.630;7.254;2023-10-19T13:48:33;7.15;;;2.22;;
13941;SDS011;7043;51.630;7.254;2023-10-19T13:50:59;6.10;;;2.67;;
13941;SDS011;7043;51.630;7.254;2023-10-19T13:53:25;7.80;;;3.35;;
13941;SDS011;7043;51.630;7.254;2023-10-19T13:55:51;6.43;;;2.63;;
13941;SDS011;7043;51.630;7.254;2023-10-19T13:58:17;9.52;;;2.90;;
13941;SDS011;7043;51.630;7.254;2023-10-19T14:00:45;7.22;;;2.80;;
13941;SDS011;7043;51.630;7.254;2023-10-19T14:03:12;6.65;;;2.85;;
13941;SDS011;7043;51.630;7.254;2023-10-19T14:05:42;5.53;;;2.63;;
13941;SDS011;7043;51.630;7.254;2023-10-19T14:08:12;8.57;;;2.90;;
13941;SDS011;7043;51.630;7.254;2023-10-19T14:10:38;5.57;;;2.47;;
13941;SDS011;7043;51.630;7.254;2023-10-19T14:13:06;5.22;;;2.70;;
13941;SDS011;7043;51.630;7.254;2023-10-19T14:15:32;6.22;;;2.80;;
13941;SDS011;7043;51.630;7.254;2023-10-19T14:17:59;6.95;;;2.70;;
13941;SDS011;7043;51.630;7.254;2023-10-19T14:20:25;7.85;;;3.10;;
13941;SDS011;7043;51.630;7.254;2023-10-19T14:22:53;6.82;;;2.60;;
13941;SDS011;7043;51.630;7.254;2023-10-19T14:25:20;8.07;;;2.95;;
13941;SDS011;7043;51.630;7.254;2023-10-19T14:27:48;7.13;;;3.00;;
13941;SDS011;7043;51.630;7.254;2023-10-19T14:30:16;7.95;;;2.67;;
13941;SDS011;7043;51.630;7.254;2023-10-19T14:32:43;7.93;;;3.33;;
13941;SDS011;7043;51.630;7.254;2023-10-19T14:35:10;7.68;;;3.05;;
13941;SDS011;7043;51.630;7.254;2023-10-19T14:37:40;8.05;;;3.28;;
13941;SDS011;7043;51.630;7.254;2023-10-19T14:40:08;6.80;;;3.35;;
13941;SDS011;7043;51.630;7.254;2023-10-19T14:42:38;9.52;;;3.60;;
13941;SDS011;7043;51.630;7.254;2023-10-19T14:45:14;7.65;;;3.33;;
13941;SDS011;7043;51.630;7.254;2023-10-19T14:47:41;7.60;;;3.35;;
13941;SDS011;7043;51.630;7.254;2023-10-19T14:50:09;9.32;;;2.50;;
13941;SDS011;7043;51.630;7.254;2023-10-19T14:52:36;5.80;;;2.58;;
13941;SDS011;7043;51.630;7.254;2023-10-19T14:55:03;8.32;;;2.88;;
13941;SDS011;7043;51.630;7.254;2023-10-19T14:57:31;9.75;;;3.42;;
13941;SDS011;7043;51.630;7.254;2023-10-19T14:59:58;8.77;;;3.13;;
13941;SDS011;7043;51.630;7.254;2023-10-19T15:02:34;7.95;;;3.00;;
13941;SDS011;7043;51.630;7.254;2023-10-19T15:05:00;7.68;;;2.72;;
13941;SDS011;7043;51.630;7.254;2023-10-19T15:07:29;7.47;;;2.92;;
13941;SDS011;7043;51.630;7.254;2023-10-19T15:09:55;7.85;;;3.05;;
13941;SDS011;7043;51.630;7.254;2023-10-19T15:12:21;7.82;;;3.30;;
13941;SDS011;7043;51.630;7.254;2023-10-19T15:14:47;8.35;;;3.17;;
13941;SDS011;7043;51.630;7.254;2023-10-19T15:17:13;6.75;;;3.22;;